Time;durP1;ratioP1;P1;durP2;ratioP2;P2;SDS_P1;SDS_P2;PMS_P1;PMS_P2;Temp;Humidity;BMP_temperature;BMP_pressure;BME280_temperature;BME280_humidity;BME280_pressure;Samples;Min_cycle;Max_cycle;Signal;HPM_P1;HPM_P2
2022/11/01 00:04:37;;;;;;;12.43;11.33;;;18.30;61.40;;;;;;2616789;54;20123;-79
2022/11/01 00:10:24;;;;;;;12.27;11.20;;;18.20;64.20;;;;;;2617342;54;20158;-83
2022/11/01 00:16:13;;;;;;;13.53;12.27;;;18.20;64.40;;;;;;2617384;54;20126;-81
2022/11/01 00:22:01;;;;;;;13.10;11.80;;;18.10;66.50;;;;;;2616566;54;20410;-82
2022/11/01 00:27:49;;;;;;;13.20;10.83;;;18.10;68.30;;;;;;2616863;54;20507;-81
2022/11/01 00:36:58;;;;;;;12.53;11.10;;;18.00;79.10;;;;;;2618941;54;20391;-82
2022/11/01 00:42:46;;;;;;;12.23;10.93;;;17.70;90.10;;;;;;2618054;54;20184;-81
2022/11/01 00:48:34;;;;;;;11.53;7.73;;;17.50;99.40;;;;;;2618492;54;20122;-80
2022/11/01 00:54:22;;;;;;;11.60;8.00;;;17.30;99.90;;;;;;2618612;54;20199;-82
2022/11/01 01:00:11;;;;;;;9.27;8.37;;;17.10;99.90;;;;;;2617848;46;20145;-82
2022/11/01 01:05:59;;;;;;;14.00;7.33;;;16.80;99.90;;;;;;2618721;54;20368;-83
2022/11/01 01:11:47;;;;;;;10.63;8.77;;;16.70;99.90;;;;;;2618450;54;20669;-83
2022/11/01 01:17:35;;;;;;;12.07;7.67;;;16.90;99.90;;;;;;2616892;54;20179;-78
2022/11/01 01:23:22;;;;;;;8.03;6.23;;;16.80;99.90;;;;;;2616652;54;20399;-77
2022/11/01 01:29:10;;;;;;;10.13;7.73;;;16.80;99.90;;;;;;2616944;54;20150;-75
2022/11/01 01:32:29;;;;;;;13.00;7.00;;;16.90;99.90;;;;;;2616782;54;20416;-79
2022/11/01 01:34:55;;;;;;;8.03;6.97;;;16.90;99.90;;;;;;2616391;46;20241;-76
2022/11/01 01:40:43;;;;;;;21.13;9.37;;;17.00;99.90;;;;;;2618006;31;20778;-77
2022/11/01 01:46:30;;;;;;;10.00;8.10;;;17.00;99.90;;;;;;2616683;54;20134;-85
2022/11/01 01:52:19;;;;;;;16.90;9.13;;;17.00;99.90;;;;;;2617499;54;20131;-84
2022/11/01 01:58:09;;;;;;;10.00;9.07;;;17.10;99.90;;;;;;2618015;54;20380;-81
2022/11/01 02:03:57;;;;;;;10.83;9.70;;;17.20;99.90;;;;;;2621808;54;20392;-82
2022/11/01 02:09:46;;;;;;;9.93;9.07;;;17.20;99.90;;;;;;2615566;54;20115;-77
2022/11/01 02:32:29;;;;;;;15.27;10.23;;;17.10;99.90;;;;;;2616524;54;20948;-76
2022/11/01 02:41:23;;;;;;;11.13;10.13;;;17.10;99.90;;;;;;2619340;54;20379;-81
2022/11/01 02:47:12;;;;;;;10.57;9.60;;;17.10;99.90;;;;;;2618589;54;20398;-82
2022/11/01 02:53:01;;;;;;;10.60;9.60;;;17.00;99.90;;;;;;2619951;54;20455;-82
2022/11/01 02:58:51;;;;;;;10.17;9.27;;;16.80;99.90;;;;;;2619514;54;20154;-82
2022/11/01 03:04:39;;;;;;;9.17;8.33;;;16.90;99.90;;;;;;2617988;54;20430;-82
2022/11/01 03:23:48;;;;;;;8.67;7.97;;;16.80;99.90;;;;;;2615104;54;20399;-82
2022/11/01 03:29:37;;;;;;;9.43;8.53;;;16.70;99.90;;;;;;2615555;54;20408;-78
2022/11/01 03:32:31;;;;;;;9.60;8.70;;;16.60;99.90;;;;;;2616259;47;20518;-80
2022/11/01 03:35:00;;;;;;;9.13;8.27;;;16.50;99.90;;;;;;2617117;46;21013;-75
2022/11/01 03:47:01;;;;;;;12.63;8.30;;;16.50;99.90;;;;;;2619370;54;21105;-80
2022/11/01 03:52:49;;;;;;;11.23;8.07;;;16.40;99.90;;;;;;2619310;54;20403;-80
2022/11/01 03:58:43;;;;;;;13.30;8.47;;;16.50;99.90;;;;;;2616378;54;20165;-76
2022/11/01 04:04:31;;;;;;;9.50;8.60;;;16.50;99.90;;;;;;2618560;39;20786;-81
2022/11/01 04:10:21;;;;;;;9.37;7.50;;;16.70;99.90;;;;;;2616805;54;20238;-81
2022/11/01 04:22:16;;;;;;;8.90;8.00;;;16.60;99.90;;;;;;2615206;54;20383;-76
2022/11/01 04:28:04;;;;;;;7.70;7.20;;;16.70;99.90;;;;;;2615988;54;20642;-76
2022/11/01 04:37:14;;;;;;;9.20;8.30;;;16.80;99.90;;;;;;2615345;54;20423;-77
2022/11/01 04:43:02;;;;;;;8.27;7.57;;;16.80;99.90;;;;;;2616845;54;20176;-76
2022/11/01 04:48:50;;;;;;;9.07;8.07;;;16.80;99.90;;;;;;2616758;54;20371;-78
2022/11/01 04:54:39;;;;;;;7.90;7.10;;;16.90;99.90;;;;;;2615701;54;20141;-77
2022/11/01 05:00:27;;;;;;;7.67;6.97;;;17.00;99.90;;;;;;2617071;39;20774;-78
2022/11/01 05:06:14;;;;;;;8.87;8.17;;;16.90;99.90;;;;;;2616215;54;20174;-77
2022/11/01 05:12:02;;;;;;;9.90;7.00;;;17.00;99.90;;;;;;2616141;54;20247;-77
2022/11/01 05:17:50;;;;;;;9.43;8.03;;;16.90;99.90;;;;;;2616819;39;20616;-75
2022/11/01 05:23:37;;;;;;;7.67;6.97;;;16.90;99.90;;;;;;2615969;54;20171;-76
2022/11/01 05:29:26;;;;;;;8.20;7.53;;;16.80;99.90;;;;;;2615396;54;21475;-77
2022/11/01 05:32:45;;;;;;;9.17;7.63;;;16.80;99.90;;;;;;2617041;54;20425;-81
2022/11/01 05:35:11;;;;;;;9.30;7.50;;;16.90;99.90;;;;;;2616321;47;20478;-82
2022/11/01 05:41:03;;;;;;;8.17;7.33;;;16.80;99.90;;;;;;2617587;54;20170;-82
2022/11/01 05:46:50;;;;;;;8.10;6.60;;;16.90;99.90;;;;;;2615540;54;21044;-76
2022/11/01 05:52:38;;;;;;;9.17;7.43;;;17.00;99.90;;;;;;2617785;54;20150;-80
2022/11/01 05:58:26;;;;;;;8.07;7.30;;;17.00;99.90;;;;;;2617095;54;20411;-83
2022/11/01 06:04:17;;;;;;;9.53;6.87;;;16.90;99.90;;;;;;2618399;54;20403;-85
2022/11/01 06:10:05;;;;;;;7.63;6.93;;;17.00;99.90;;;;;;2618920;54;20398;-84
2022/11/01 06:16:04;;;;;;;8.70;6.60;;;17.00;99.90;;;;;;2619385;39;20804;-84
2022/11/01 06:21:53;;;;;;;7.27;6.70;;;17.00;99.90;;;;;;2617979;54;20442;-84
2022/11/01 06:27:41;;;;;;;6.90;6.40;;;17.10;99.90;;;;;;2619364;54;20110;-84
2022/11/01 06:37:16;;;;;;;6.80;6.40;;;16.90;99.90;;;;;;2618208;46;20458;-84
2022/11/01 06:43:04;;;;;;;7.07;6.20;;;16.60;99.90;;;;;;2617604;54;20394;-77
2022/11/01 06:48:52;;;;;;;6.93;6.10;;;16.30;99.90;;;;;;2613489;54;20371;-77
2022/11/01 06:54:40;;;;;;;7.23;6.73;;;16.20;99.90;;;;;;2616165;54;20688;-82
2022/11/01 07:00:29;;;;;;;6.80;6.20;;;16.00;99.90;;;;;;2615816;54;20724;-77
2022/11/01 07:06:17;;;;;;;6.97;6.47;;;15.90;99.90;;;;;;2613464;54;20434;-77
2022/11/01 07:12:05;;;;;;;6.50;6.10;;;15.70;99.90;;;;;;2614917;39;20848;-78
2022/11/01 07:18:01;;;;;;;7.07;6.70;;;15.50;91.90;;;;;;2618900;54;20134;-83
2022/11/01 07:23:49;;;;;;;12.20;7.03;;;15.30;83.50;;;;;;2617869;54;20430;-76
2022/11/01 07:29:40;;;;;;;7.43;7.03;;;15.30;81.40;;;;;;2616771;54;20523;-78
2022/11/01 07:35:28;;;;;;;7.20;6.80;;;15.20;82.10;;;;;;2617834;54;20387;-76
2022/11/01 07:44:38;;;;;;;8.43;8.03;;;15.20;79.00;;;;;;2617837;54;20434;-80
2022/11/01 07:50:26;;;;;;;7.57;7.07;;;15.30;76.30;;;;;;2618847;46;20146;-82
2022/11/01 07:56:14;;;;;;;7.53;7.17;;;15.50;73.60;;;;;;2618633;39;20500;-80
2022/11/01 08:02:01;;;;;;;7.47;6.93;;;16.60;48.60;;;;;;2618552;54;20362;-80
2022/11/01 08:07:49;;;;;;;8.70;8.00;;;17.10;44.90;;;;;;2617694;54;20129;-77
2022/11/01 08:13:37;;;;;;;8.47;7.97;;;16.60;43.40;;;;;;2615899;54;20134;-77
2022/11/01 08:19:25;;;;;;;7.20;6.90;;;17.70;41.40;;;;;;2616923;46;20145;-80
2022/11/01 08:25:13;;;;;;;8.40;7.90;;;17.60;41.00;;;;;;2618850;54;20530;-82
2022/11/01 08:31:05;;;;;;;8.70;7.90;;;16.70;43.60;;;;;;2620899;54;20162;-83
2022/11/01 08:36:53;;;;;;;7.30;6.80;;;16.50;45.90;;;;;;2616510;54;20531;-76
2022/11/01 08:40:02;;;;;;;8.10;7.50;;;16.80;42.00;;;;;;2616093;54;20419;-77
2022/11/01 08:42:28;;;;;;;8.47;7.73;;;17.30;39.10;;;;;;2616354;47;20178;-76
2022/11/01 08:48:15;;;;;;;9.67;8.97;;;16.70;36.30;;;;;;2617349;54;20123;-77
2022/11/01 08:54:04;;;;;;;9.13;8.53;;;17.40;31.80;;;;;;2618109;39;20616;-77
2022/11/01 08:59:52;;;;;;;9.07;8.50;;;17.60;29.40;;;;;;2616671;54;20411;-77
2022/11/01 09:05:40;;;;;;;9.40;8.47;;;18.10;29.00;;;;;;2617133;54;20130;-78
2022/11/01 09:11:28;;;;;;;11.60;10.33;;;18.20;28.40;;;;;;2617231;54;20122;-78
2022/11/01 09:17:16;;;;;;;11.30;10.40;;;18.70;26.30;;;;;;2616759;54;20375;-78
2022/11/01 09:23:03;;;;;;;11.40;10.30;;;18.60;25.10;;;;;;2617079;39;20230;-77
2022/11/01 09:28:51;;;;;;;10.80;9.83;;;17.90;23.50;;;;;;2616963;39;20536;-78
2022/11/01 09:34:39;;;;;;;10.80;10.07;;;18.10;22.70;;;;;;2616719;54;20153;-78
2022/11/01 09:44:32;;;;;;;11.10;10.40;;;19.10;21.40;;;;;;2616044;54;20415;-77
2022/11/01 09:50:24;;;;;;;12.00;10.93;;;19.00;22.10;;;;;;2616712;54;20431;-78
2022/11/01 10:03:13;;;;;;;11.63;10.73;;;19.30;20.70;;;;;;2617250;39;20772;-78
2022/11/01 10:09:19;;;;;;;11.13;10.43;;;19.60;19.60;;;;;;2615216;54;20391;-77
2022/11/01 10:15:26;;;;;;;12.07;10.10;;;20.00;20.70;;;;;;2618722;54;20419;-80
2022/11/01 10:21:16;;;;;;;12.07;10.80;;;19.00;20.30;;;;;;2618108;54;20387;-80
2022/11/01 10:33:25;;;;;;;11.80;11.00;;;19.30;21.10;;;;;;2615458;54;20517;-76
2022/11/01 10:40:02;;;;;;;10.80;10.00;;;18.90;21.30;;;;;;2615998;54;20495;-81
2022/11/01 10:42:37;;;;;;;10.30;9.40;;;19.30;21.30;;;;;;2615515;54;20470;-75
2022/11/01 10:48:35;;;;;;;10.80;10.10;;;19.70;20.70;;;;;;2615092;54;20549;-77
2022/11/01 10:54:28;;;;;;;10.93;10.13;;;20.00;20.90;;;;;;2615529;54;20401;-77
2022/11/01 11:00:18;;;;;;;11.40;9.70;;;20.00;20.90;;;;;;2613395;54;20411;-76
2022/11/01 11:06:10;;;;;;;11.70;9.80;;;19.00;21.50;;;;;;2616318;54;20928;-79
2022/11/01 11:12:02;;;;;;;9.87;9.37;;;20.40;20.40;;;;;;2615934;54;20938;-76
2022/11/01 11:17:56;;;;;;;11.20;10.30;;;19.70;20.70;;;;;;2616027;39;20751;-79
2022/11/01 11:23:45;;;;;;;11.67;10.73;;;20.00;20.40;;;;;;2616428;54;20419;-76
2022/11/01 11:29:40;;;;;;;11.13;10.43;;;19.70;20.10;;;;;;2616404;54;20395;-78
2022/11/01 11:35:31;;;;;;;12.53;11.30;;;20.30;19.40;;;;;;2615489;54;20387;-79
2022/11/01 11:51:36;;;;;;;17.47;10.90;;;20.50;19.80;;;;;;2616070;54;20387;-76
2022/11/01 11:57:26;;;;;;;11.10;10.40;;;21.00;18.60;;;;;;2614661;54;21052;-76
2022/11/01 12:03:16;;;;;;;11.23;10.40;;;21.90;17.20;;;;;;2614440;54;20503;-76
2022/11/01 12:18:52;;;;;;;10.83;10.03;;;21.40;18.50;;;;;;2614449;54;20436;-78
2022/11/01 12:24:47;;;;;;;11.80;10.63;;;20.20;19.50;;;;;;2615600;54;20380;-76
2022/11/01 12:30:36;;;;;;;10.97;10.03;;;20.20;18.30;;;;;;2616824;54;20426;-77
2022/11/01 12:52:52;;;;;;;10.93;10.20;;;20.30;20.10;;;;;;2614609;39;20445;-74
2022/11/01 12:58:40;;;;;;;11.77;10.57;;;21.40;19.80;;;;;;2614308;54;20371;-77
2022/11/01 13:04:33;;;;;;;10.83;10.13;;;21.20;19.20;;;;;;2614629;54;20427;-78
2022/11/01 13:23:14;;;;;;;12.13;10.90;;;21.00;17.50;;;;;;2617260;54;20535;-79
2022/11/01 13:39:19;;;;;;;11.80;10.67;;;20.60;17.70;;;;;;2616278;39;20847;-80
2022/11/01 13:45:08;;;;;;;10.10;9.40;;;21.80;16.80;;;;;;2618539;54;20403;-82
2022/11/01 14:10:47;;;;;;;11.23;10.30;;;22.40;17.90;;;;;;2620343;54;20395;-82
2022/11/01 14:16:35;;;;;;;11.03;10.33;;;21.50;17.80;;;;;;2620861;54;20436;-82
2022/11/01 14:22:26;;;;;;;10.23;9.43;;;20.90;18.90;;;;;;2620367;54;20676;-82
2022/11/01 14:28:15;;;;;;;10.23;9.60;;;21.00;18.80;;;;;;2620012;54;20431;-81
2022/11/01 14:34:10;;;;;;;12.10;11.13;;;20.00;18.80;;;;;;2620225;54;20447;-82
2022/11/01 14:46:35;;;;;;;12.43;11.33;;;20.50;18.30;;;;;;2620570;54;20506;-82
2022/11/01 14:58:30;;;;;;;10.90;10.10;;;20.00;19.20;;;;;;2619526;54;20374;-83
2022/11/01 15:15:15;;;;;;;11.10;10.30;;;20.20;20.10;;;;;;2619120;54;20455;-83
2022/11/01 15:21:04;;;;;;;12.07;11.00;;;19.60;21.20;;;;;;2619694;54;20390;-82
2022/11/01 15:26:53;;;;;;;11.83;10.80;;;17.80;22.10;;;;;;2620212;54;20397;-81
2022/11/01 15:32:41;;;;;;;11.33;10.63;;;16.50;26.70;;;;;;2620286;46;20431;-81
2022/11/01 15:38:33;;;;;;;10.97;10.30;;;16.40;27.50;;;;;;2620021;54;20122;-81
2022/11/01 15:44:22;;;;;;;11.00;10.13;;;16.00;29.60;;;;;;2619861;46;20398;-81
2022/11/01 15:53:59;;;;;;;12.53;11.33;;;15.80;32.70;;;;;;2619617;47;20852;-84
2022/11/01 16:00:09;;;;;;;11.80;10.80;;;15.50;35.30;;;;;;2619391;54;20398;-82
2022/11/01 16:06:01;;;;;;;12.33;10.27;;;15.40;36.10;;;;;;2618476;54;20414;-78
2022/11/01 16:11:53;;;;;;;10.20;9.60;;;15.20;38.70;;;;;;2618320;54;20411;-79
2022/11/01 16:17:42;;;;;;;11.87;10.77;;;15.30;36.80;;;;;;2619678;54;20387;-80
2022/11/01 16:23:31;;;;;;;10.70;10.10;;;15.10;36.20;;;;;;2620540;54;20458;-82
2022/11/01 16:42:30;;;;;;;10.87;10.17;;;14.60;37.90;;;;;;2622405;54;20394;-81
2022/11/01 16:48:30;;;;;;;11.63;10.63;;;14.60;38.00;;;;;;2625094;54;20407;-82
2022/11/01 16:54:18;;;;;;;11.17;10.37;;;14.60;38.20;;;;;;2622391;54;21013;-79
2022/11/01 17:00:12;;;;;;;11.80;10.90;;;14.60;36.90;;;;;;2616355;54;20123;-79
2022/11/01 17:06:00;;;;;;;10.53;9.93;;;14.60;37.10;;;;;;2617930;54;20386;-78
2022/11/01 17:11:52;;;;;;;11.60;10.53;;;14.60;37.60;;;;;;2616143;54;20126;-77
2022/11/01 17:17:41;;;;;;;11.27;10.30;;;14.50;38.30;;;;;;2615832;54;20367;-79
2022/11/01 17:23:29;;;;;;;11.20;10.10;;;14.30;40.50;;;;;;2614788;54;20458;-80
2022/11/01 17:29:17;;;;;;;11.13;10.37;;;14.30;41.20;;;;;;2617959;54;20153;-78
2022/11/01 17:35:05;;;;;;;11.57;10.53;;;14.20;42.10;;;;;;2617197;54;20165;-79
2022/11/01 17:40:56;;;;;;;13.50;12.50;;;14.20;42.70;;;;;;2617318;54;20441;-79
2022/11/01 17:46:44;;;;;;;11.17;10.37;;;14.30;44.30;;;;;;2616460;54;21058;-80
2022/11/01 17:52:31;;;;;;;11.80;10.90;;;14.30;44.80;;;;;;2616701;54;20122;-78
2022/11/01 17:58:19;;;;;;;12.80;11.60;;;14.10;46.30;;;;;;2614991;46;20691;-77
2022/11/01 18:04:07;;;;;;;29.63;18.80;;;14.20;47.20;;;;;;2616696;54;20235;-81
2022/11/01 18:09:58;;;;;;;11.47;10.33;;;14.00;48.10;;;;;;2615220;54;20746;-76
2022/11/01 18:22:51;;;;;;;11.30;10.33;;;14.00;52.90;;;;;;2615238;54;20387;-76
2022/11/01 18:28:39;;;;;;;11.00;10.10;;;13.80;56.40;;;;;;2616028;54;20406;-76
2022/11/01 18:41:01;;;;;;;10.77;9.80;;;13.60;59.70;;;;;;2616823;54;20378;-79
2022/11/01 18:57:26;;;;;;;11.73;10.53;;;13.40;69.90;;;;;;2614413;54;20438;-78
2022/11/01 19:03:15;;;;;;;12.27;11.17;;;13.30;72.10;;;;;;2614348;54;20436;-79
2022/11/01 19:15:39;;;;;;;10.47;9.63;;;13.10;78.30;;;;;;2615071;54;20419;-79
2022/11/01 19:21:30;;;;;;;12.50;10.93;;;13.20;78.80;;;;;;2614969;54;20146;-78
2022/11/01 19:27:21;;;;;;;19.03;10.90;;;13.20;79.40;;;;;;2616849;54;20395;-78
2022/11/01 19:45:48;;;;;;;13.93;9.53;;;13.30;79.90;;;;;;2617589;54;20387;-79
2022/11/01 19:51:36;;;;;;;11.60;10.23;;;13.20;80.80;;;;;;2617467;54;20395;-80
2022/11/01 20:04:04;;;;;;;11.70;10.53;;;13.10;82.90;;;;;;2618233;39;20788;-79
2022/11/01 20:09:55;;;;;;;13.03;9.80;;;13.00;86.20;;;;;;2616629;54;20375;-79
2022/11/01 20:15:43;;;;;;;14.13;9.70;;;13.10;86.40;;;;;;2616454;54;20418;-79
2022/11/01 20:21:31;;;;;;;14.70;10.63;;;13.10;87.00;;;;;;2616710;54;20391;-79
2022/11/01 20:27:19;;;;;;;12.23;10.20;;;12.90;89.10;;;;;;2616162;54;20207;-79
2022/11/01 20:33:06;;;;;;;10.60;9.60;;;12.90;90.40;;;;;;2616974;39;20542;-79
2022/11/01 20:38:55;;;;;;;15.77;9.90;;;12.80;91.50;;;;;;2616655;54;20682;-79
2022/11/01 20:44:43;;;;;;;12.53;10.17;;;12.90;92.20;;;;;;2616382;54;20402;-76
2022/11/01 20:50:31;;;;;;;11.40;9.20;;;12.90;92.40;;;;;;2616775;54;20137;-76
2022/11/01 20:56:18;;;;;;;18.03;9.60;;;12.80;92.80;;;;;;2616660;54;20157;-80
2022/11/01 21:02:11;;;;;;;12.00;10.27;;;13.00;92.10;;;;;;2617065;54;20670;-78
2022/11/01 21:14:18;;;;;;;16.53;11.43;;;12.70;94.10;;;;;;2616946;54;20384;-79
2022/11/01 21:26:46;;;;;;;10.10;9.17;;;12.90;92.40;;;;;;2614841;54;20395;-79
2022/11/01 21:32:37;;;;;;;9.80;8.93;;;12.80;92.60;;;;;;2615939;54;20406;-80
2022/11/01 21:44:44;;;;;;;10.43;9.60;;;12.80;94.20;;;;;;2615160;54;20510;-79
2022/11/01 21:50:32;;;;;;;15.30;10.53;;;12.90;94.00;;;;;;2614835;54;20430;-78
2022/11/01 21:56:20;;;;;;;21.80;10.13;;;12.90;94.30;;;;;;2616278;54;20678;-78
2022/11/01 22:02:10;;;;;;;10.47;9.50;;;13.10;93.60;;;;;;2616790;54;20195;-79
2022/11/01 22:07:58;;;;;;;14.17;9.90;;;13.10;93.60;;;;;;2616966;54;20919;-79
2022/11/01 22:13:46;;;;;;;11.37;10.40;;;13.10;93.90;;;;;;2616559;54;20127;-78
2022/11/01 22:19:34;;;;;;;10.67;9.33;;;13.00;94.70;;;;;;2616537;54;20262;-78
2022/11/01 22:25:22;;;;;;;9.23;8.47;;;13.00;94.30;;;;;;2616842;54;20134;-79
2022/11/01 22:31:09;;;;;;;9.83;8.97;;;13.10;94.30;;;;;;2616155;39;20657;-79
2022/11/01 22:36:59;;;;;;;13.00;9.93;;;13.00;95.10;;;;;;2618426;54;20181;-81
2022/11/01 22:42:53;;;;;;;11.50;10.40;;;13.10;95.40;;;;;;2618850;54;20379;-81
2022/11/01 22:48:41;;;;;;;10.93;9.73;;;13.20;94.60;;;;;;2615770;54;20392;-81
2022/11/01 22:54:34;;;;;;;12.37;10.73;;;13.30;94.80;;;;;;2618227;54;20137;-82
2022/11/01 22:57:30;;;;;;;11.53;9.83;;;13.20;95.00;;;;;;2616519;47;20427;-79
2022/11/01 23:06:30;;;;;;;13.73;10.60;;;13.20;95.50;;;;;;2614765;54;20414;-82
2022/11/01 23:18:33;;;;;;;11.10;10.17;;;13.30;95.50;;;;;;2617760;39;20738;-78
2022/11/01 23:24:20;;;;;;;14.33;10.80;;;13.30;95.50;;;;;;2616961;54;20411;-75
2022/11/01 23:30:08;;;;;;;11.93;10.30;;;13.30;95.60;;;;;;2615515;54;20130;-75
2022/11/01 23:35:59;;;;;;;10.00;9.17;;;13.20;96.60;;;;;;2615759;54;20402;-75
2022/11/01 23:41:52;;;;;;;9.80;8.93;;;13.30;96.60;;;;;;2616876;54;20422;-81
2022/11/01 23:47:40;;;;;;;11.27;10.27;;;13.40;95.70;;;;;;2616566;54;20400;-81
2022/11/01 23:53:34;;;;;;;10.77;9.87;;;13.30;96.20;;;;;;2616793;54;20367;-80
